Time;durP1;ratioP1;P1;durP2;ratioP2;P2;SDS_P1;SDS_P2;PMS_P1;PMS_P2;Temp;Humidity;BMP_temperature;BMP_pressure;BME280_temperature;BME280_humidity;BME280_pressure;Samples;Min_cycle;Max_cycle;Signal;HPM_P1;HPM_P2
2022/04/12 00:00:03;;;;;;;6.68;2.95;;;;;;;3.73;77.35;97127.94;5048517;28;20115;-63
2022/04/12 00:02:37;;;;;;;5.93;3.28;;;;;;;3.68;77.21;97122.41;5059948;28;20048;-63
2022/04/12 00:05:05;;;;;;;7.55;3.30;;;;;;;3.59;77.35;97115.66;5058989;28;20140;-63
2022/04/12 00:07:51;;;;;;;7.70;3.28;;;;;;;3.64;77.57;97124.69;5059408;28;20491;-63
2022/04/12 00:10:18;;;;;;;7.95;3.15;;;;;;;3.63;77.73;97127.59;5056471;28;20053;-63
2022/04/12 00:12:44;;;;;;;7.85;3.03;;;;;;;3.63;78.28;97122.22;5064650;28;20332;-63
2022/04/12 00:15:12;;;;;;;6.75;2.95;;;;;;;3.74;76.79;97118.91;5067036;28;20040;-64
2022/04/12 00:20:26;;;;;;;6.90;3.10;;;;;;;3.95;76.74;97114.25;5057815;28;20428;-62
2022/04/12 00:22:54;;;;;;;6.88;3.03;;;;;;;3.99;75.99;97102.06;5060858;28;20411;-63
2022/04/12 00:25:22;;;;;;;7.85;3.10;;;;;;;3.86;75.96;97112.84;5055895;28;20036;-63
2022/04/12 00:27:51;;;;;;;5.43;3.03;;;;;;;3.97;76.50;97112.16;5051083;28;20052;-63
2022/04/12 00:30:18;;;;;;;5.32;3.03;;;;;;;4.02;75.49;97106.16;5051674;28;20171;-63
2022/04/12 00:32:46;;;;;;;6.10;3.03;;;;;;;4.15;74.84;97107.91;5058551;28;20033;-63
2022/04/12 00:35:13;;;;;;;7.53;3.08;;;;;;;4.16;75.61;97106.88;5045172;28;20554;-63
2022/04/12 00:37:39;;;;;;;5.15;3.10;;;;;;;4.15;74.85;97108.75;5046392;28;20045;-63
2022/04/12 00:40:07;;;;;;;5.43;3.15;;;;;;;4.25;74.81;97108.28;5046510;28;20048;-63
2022/04/12 00:42:33;;;;;;;5.30;3.03;;;;;;;4.28;75.36;97109.69;5057875;28;20542;-63
2022/04/12 00:45:01;;;;;;;6.10;3.28;;;;;;;4.26;74.90;97107.22;5049817;28;20488;-64
2022/04/12 00:47:57;;;;;;;6.05;2.58;;;;;;;4.25;74.85;97110.13;5050210;28;20049;-63
2022/04/12 00:50:24;;;;;;;6.45;2.80;;;;;;;4.22;74.01;97110.53;5055289;28;20040;-64
2022/04/12 00:52:53;;;;;;;5.75;3.05;;;;;;;4.28;74.32;97107.81;5055743;28;20056;-63
2022/04/12 00:55:19;;;;;;;4.70;2.75;;;;;;;4.09;74.99;97109.59;5082632;28;20040;-63
2022/04/12 00:57:47;;;;;;;5.95;3.33;;;;;;;4.20;74.71;97113.44;5065346;28;20040;-63
2022/04/12 01:00:16;;;;;;;8.13;3.58;;;;;;;4.21;74.32;97101.72;5059518;28;20056;-64
2022/04/12 01:19:32;;;;;;;7.95;3.45;;;;;;;3.77;75.68;97094.34;5052834;28;20123;-63
2022/04/12 01:22:06;;;;;;;5.32;2.85;;;;;;;3.83;75.88;97092.66;5066543;28;20051;-63
2022/04/12 01:24:33;;;;;;;7.97;3.30;;;;;;;3.76;76.32;97094.56;5061402;28;20341;-63
2022/04/12 01:27:00;;;;;;;8.00;3.88;;;;;;;3.82;76.48;97098.22;5045721;28;20076;-63
2022/04/12 01:29:33;;;;;;;4.57;2.72;;;;;;;3.73;75.71;97093.13;5045817;28;20045;-62
2022/04/12 01:32:01;;;;;;;5.70;3.28;;;;;;;3.68;74.96;97092.94;5041251;28;20563;-62
2022/04/12 01:34:28;;;;;;;6.75;3.83;;;;;;;3.68;75.73;97094.81;5053291;28;20041;-62
2022/04/12 01:36:54;;;;;;;6.57;3.55;;;;;;;3.65;75.26;97090.72;5052556;28;20043;-63
2022/04/12 01:39:21;;;;;;;6.97;3.25;;;;;;;3.57;75.90;97096.31;5045045;28;20049;-63
2022/04/12 01:41:48;;;;;;;7.68;3.03;;;;;;;3.62;76.35;97086.59;5046842;28;20045;-63
2022/04/12 01:44:14;;;;;;;6.88;3.58;;;;;;;3.58;76.24;97082.69;5045283;28;20041;-63
2022/04/12 01:46:41;;;;;;;6.85;3.47;;;;;;;3.51;78.63;97096.13;5044989;28;20048;-64
2022/04/12 01:49:07;;;;;;;5.78;3.65;;;;;;;3.25;77.89;97087.19;5053705;28;20076;-63
2022/04/12 01:51:34;;;;;;;6.93;3.85;;;;;;;3.22;77.24;97102.84;5048347;28;20102;-64
2022/04/12 01:54:00;;;;;;;6.57;3.00;;;;;;;3.13;77.95;97096.88;5057239;28;20056;-63
2022/04/12 01:56:28;;;;;;;8.50;3.22;;;;;;;3.03;78.20;97088.50;5048433;28;20455;-62
2022/04/12 01:58:56;;;;;;;5.72;2.90;;;;;;;3.22;77.62;97092.13;5051364;28;20055;-63
2022/04/12 02:01:22;;;;;;;5.85;3.30;;;;;;;3.21;77.68;97090.50;5048342;28;20126;-63
2022/04/12 02:03:49;;;;;;;4.97;2.88;;;;;;;3.06;77.48;97083.53;5062400;28;20068;-63
2022/04/12 02:06:15;;;;;;;7.00;3.42;;;;;;;2.88;78.66;97086.06;5059826;28;20053;-63
2022/04/12 02:08:43;;;;;;;5.15;3.25;;;;;;;2.69;78.72;97085.91;5055345;28;20131;-63
2022/04/12 02:11:10;;;;;;;6.07;3.15;;;;;;;2.63;79.52;97092.91;5058054;28;20045;-63
2022/04/12 02:13:37;;;;;;;5.82;3.10;;;;;;;2.66;80.23;97075.63;5059325;28;20044;-64
2022/04/12 02:16:04;;;;;;;6.43;2.97;;;;;;;2.39;80.90;97087.16;5048867;28;20041;-63
2022/04/12 02:18:32;;;;;;;5.22;3.00;;;;;;;2.47;80.08;97080.81;5063830;28;20079;-63
2022/04/12 02:20:58;;;;;;;7.57;2.50;;;;;;;2.39;80.75;97076.47;5057296;28;20048;-62
2022/04/12 02:23:25;;;;;;;7.18;3.42;;;;;;;2.52;80.93;97081.00;5064702;28;20136;-62
2022/04/12 02:25:52;;;;;;;6.07;2.50;;;;;;;2.52;79.65;97074.81;5052023;28;20037;-63
2022/04/12 02:28:18;;;;;;;9.27;3.25;;;;;;;2.51;80.43;97086.53;5043948;28;20425;-63
2022/04/12 02:30:45;;;;;;;7.45;3.10;;;;;;;2.56;80.14;97086.72;5048619;28;20040;-63
2022/04/12 02:33:11;;;;;;;4.57;2.60;;;;;;;2.47;80.32;97086.16;5062463;28;20576;-63
2022/04/12 02:35:38;;;;;;;5.15;2.85;;;;;;;2.40;80.22;97085.31;5061027;28;20028;-63
2022/04/12 02:38:04;;;;;;;5.22;3.03;;;;;;;2.39;80.84;97084.47;5055824;28;20389;-63
2022/04/12 02:40:32;;;;;;;7.30;2.97;;;;;;;2.36;81.14;97086.75;5060445;28;20562;-63
2022/04/12 02:42:58;;;;;;;6.97;2.90;;;;;;;2.36;81.00;97081.41;5044105;28;20045;-63
2022/04/12 02:45:25;;;;;;;10.07;3.85;;;;;;;2.36;81.59;97082.22;5045880;28;20051;-63
2022/04/12 02:47:51;;;;;;;5.50;2.58;;;;;;;2.40;80.91;97072.75;5044435;28;20371;-63
2022/04/12 02:50:18;;;;;;;6.47;2.53;;;;;;;2.34;80.70;97076.28;5060867;28;20125;-62
2022/04/12 02:52:44;;;;;;;7.10;3.08;;;;;;;2.06;81.45;97075.44;5049445;28;20036;-62
2022/04/12 02:55:11;;;;;;;6.05;2.67;;;;;;;1.98;82.59;97080.19;5057617;28;20557;-63
2022/04/12 02:57:37;;;;;;;7.10;2.92;;;;;;;2.29;81.54;97073.41;5068600;28;20048;-62
2022/04/12 03:00:05;;;;;;;5.45;3.00;;;;;;;2.15;81.67;97075.25;5060190;28;20041;-63
2022/04/12 03:02:32;;;;;;;5.55;3.03;;;;;;;2.17;81.15;97073.19;5058372;28;20052;-63
2022/04/12 03:04:58;;;;;;;7.00;2.72;;;;;;;2.11;81.82;97068.66;5049328;28;20049;-62
2022/04/12 03:07:25;;;;;;;4.70;2.70;;;;;;;2.22;82.29;97065.38;5057524;28;20319;-63
2022/04/12 03:09:51;;;;;;;5.57;2.70;;;;;;;2.40;80.69;97061.25;5050717;28;20519;-63
2022/04/12 03:12:18;;;;;;;6.45;3.00;;;;;;;2.37;81.09;97070.53;5052811;28;20037;-62
2022/04/12 03:14:44;;;;;;;5.88;3.08;;;;;;;2.24;82.22;97066.00;5061959;28;20044;-63
2022/04/12 03:17:15;;;;;;;4.97;2.90;;;;;;;2.30;81.37;97059.00;5055789;28;20052;-63
2022/04/12 03:19:42;;;;;;;6.05;3.45;;;;;;;2.38;81.89;97052.63;5056809;28;20041;-63
2022/04/12 03:22:08;;;;;;;5.38;2.63;;;;;;;2.31;80.43;97064.16;5066076;28;20101;-63
2022/04/12 03:24:36;;;;;;;7.03;2.65;;;;;;;2.37;81.04;97054.50;5064866;28;20040;-63
2022/04/12 03:27:02;;;;;;;5.03;2.75;;;;;;;2.64;80.35;97046.41;5053686;28;20041;-63
2022/04/12 03:29:29;;;;;;;4.97;2.53;;;;;;;2.62;79.37;97055.69;5056554;28;20532;-63
2022/04/12 03:31:55;;;;;;;5.43;2.92;;;;;;;2.67;79.37;97048.69;5056746;28;20105;-63
2022/04/12 03:34:22;;;;;;;7.25;2.97;;;;;;;2.64;79.53;97064.31;5066249;28;20048;-63
2022/04/12 03:36:49;;;;;;;6.70;2.97;;;;;;;2.63;79.55;97060.81;5063776;28;20049;-63
2022/04/12 03:39:18;;;;;;;6.05;3.03;;;;;;;2.75;78.57;97061.00;5050901;28;20041;-64
2022/04/12 03:41:46;;;;;;;5.43;2.72;;;;;;;2.75;80.21;97063.66;5055660;28;20498;-64
2022/04/12 03:44:16;;;;;;;7.28;3.00;;;;;;;2.91;79.60;97065.06;5055604;28;20504;-64
2022/04/12 03:46:46;;;;;;;5.18;2.65;;;;;;;2.96;77.37;97062.59;5047599;28;20292;-63
2022/04/12 03:49:13;;;;;;;6.38;3.20;;;;;;;2.81;78.58;97068.19;5048705;28;20039;-63
2022/04/12 03:51:39;;;;;;;6.78;3.20;;;;;;;2.73;79.68;97063.88;5055042;28;20446;-63
2022/04/12 03:54:06;;;;;;;6.68;2.70;;;;;;;2.89;79.63;97064.47;5066043;28;20056;-63
2022/04/12 03:56:34;;;;;;;6.40;2.90;;;;;;;3.04;79.56;97068.72;5061786;28;20446;-63
2022/04/12 03:59:01;;;;;;;4.70;3.15;;;;;;;3.11;79.23;97058.84;5049775;28;20457;-63
2022/04/12 04:01:28;;;;;;;6.68;3.10;;;;;;;3.16;79.94;97066.25;5061263;28;20109;-63
2022/04/12 04:03:55;;;;;;;6.05;2.83;;;;;;;3.12;77.78;97071.19;5053606;28;20496;-63
2022/04/12 04:06:22;;;;;;;7.47;2.88;;;;;;;3.11;78.77;97069.53;5058650;28;20098;-63
2022/04/12 04:08:49;;;;;;;6.50;3.35;;;;;;;3.16;77.89;97066.25;5046979;28;20041;-63
2022/04/12 04:11:15;;;;;;;5.32;2.45;;;;;;;3.18;79.23;97069.50;5050103;28;20052;-63
2022/04/12 04:13:42;;;;;;;6.35;2.97;;;;;;;3.21;77.01;97064.56;5056708;28;20045;-63
2022/04/12 04:16:08;;;;;;;4.97;2.30;;;;;;;3.15;78.09;97065.41;5046199;28;20497;-63
2022/04/12 04:18:35;;;;;;;4.53;2.70;;;;;;;3.24;77.76;97069.47;5066966;28;20115;-63
2022/04/12 04:21:02;;;;;;;4.38;2.53;;;;;;;3.36;76.99;97071.50;5050807;28;20107;-63
2022/04/12 04:23:29;;;;;;;4.72;2.80;;;;;;;3.36;77.50;97069.63;5069244;28;20523;-63
2022/04/12 04:25:55;;;;;;;5.80;3.13;;;;;;;3.46;76.78;97069.19;5061398;28;20047;-63
2022/04/12 04:28:22;;;;;;;7.85;3.20;;;;;;;3.61;75.19;97062.75;5065722;28;20040;-64
2022/04/12 04:30:50;;;;;;;7.05;3.10;;;;;;;3.69;76.54;97062.44;5046374;28;20067;-63
2022/04/12 04:33:17;;;;;;;15.02;3.90;;;;;;;3.59;75.67;97059.44;5063005;28;20048;-63
2022/04/12 04:35:48;;;;;;;6.22;3.25;;;;;;;3.54;76.39;97056.59;5056838;28;20807;-63
2022/04/12 04:38:15;;;;;;;7.13;2.65;;;;;;;3.31;76.72;97058.75;5062245;28;20260;-63
2022/04/12 04:40:42;;;;;;;8.27;3.63;;;;;;;3.22;76.71;97055.50;5046862;28;20045;-63
2022/04/12 04:43:09;;;;;;;7.65;2.80;;;;;;;3.29;76.97;97054.66;5055483;28;20531;-63
2022/04/12 04:45:36;;;;;;;7.60;3.42;;;;;;;3.21;77.59;97055.72;5057196;28;20078;-63
2022/04/12 04:48:04;;;;;;;5.47;2.67;;;;;;;3.16;77.42;97056.34;5053968;28;20571;-63
2022/04/12 04:50:32;;;;;;;6.13;3.25;;;;;;;3.17;77.75;97065.19;5046928;28;20041;-63
2022/04/12 04:53:02;;;;;;;5.70;3.03;;;;;;;3.22;76.78;97060.88;5048325;28;20075;-64
2022/04/12 04:55:28;;;;;;;8.73;3.70;;;;;;;3.32;77.15;97062.25;5048899;28;20039;-63
2022/04/12 04:57:57;;;;;;;6.55;3.58;;;;;;;3.42;76.28;97067.97;5058644;28;20052;-63
2022/04/12 05:00:29;;;;;;;8.27;3.15;;;;;;;3.50;76.43;97058.84;5064046;28;20048;-64
2022/04/12 05:02:56;;;;;;;10.15;4.00;;;;;;;3.58;76.53;97063.97;5057149;28;20040;-64
2022/04/12 05:05:23;;;;;;;12.88;3.75;;;;;;;3.64;76.80;97063.13;5054489;28;20126;-63
2022/04/12 05:07:51;;;;;;;5.88;3.00;;;;;;;3.69;76.96;97064.34;5053225;28;20056;-63
2022/04/12 05:10:23;;;;;;;6.07;3.28;;;;;;;3.89;74.87;97062.34;5044565;28;20110;-63
2022/04/12 05:12:50;;;;;;;7.60;3.40;;;;;;;3.97;74.26;97068.47;5048383;28;20560;-64
2022/04/12 05:15:17;;;;;;;4.97;3.08;;;;;;;3.63;75.16;97069.53;5047775;28;20397;-63
2022/04/12 05:17:51;;;;;;;9.70;3.95;;;;;;;3.36;76.62;97080.34;5045283;28;20230;-63
2022/04/12 05:20:19;;;;;;;7.75;3.67;;;;;;;3.29;77.05;97066.19;5055746;28;20402;-62
2022/04/12 05:22:46;;;;;;;7.95;3.33;;;;;;;3.33;76.57;97069.25;5057426;28;20044;-63
2022/04/12 05:25:13;;;;;;;7.82;3.47;;;;;;;3.34;77.04;97076.22;5065829;28;20041;-62
2022/04/12 05:27:40;;;;;;;7.40;3.83;;;;;;;3.37;76.75;97068.63;5046730;28;20067;-62
2022/04/12 05:30:08;;;;;;;7.80;3.90;;;;;;;3.37;77.22;97073.13;5058868;28;20044;-62
2022/04/12 05:32:36;;;;;;;5.97;3.53;;;;;;;3.30;78.05;97067.00;5066124;28;20068;-63
2022/04/12 05:35:05;;;;;;;7.93;4.00;;;;;;;3.48;77.57;97066.28;5068012;28;20055;-63
2022/04/12 05:37:39;;;;;;;9.23;4.30;;;;;;;3.68;76.96;97076.09;5049683;28;20426;-63
2022/04/12 05:40:07;;;;;;;11.15;3.78;;;;;;;3.82;76.21;97080.31;5070553;28;20044;-62
2022/04/12 05:42:33;;;;;;;8.85;3.53;;;;;;;4.02;75.87;97095.44;5052685;28;20048;-63
2022/04/12 05:45:00;;;;;;;7.15;3.67;;;;;;;4.08;75.44;97089.22;5052835;28;20495;-63
2022/04/12 05:47:27;;;;;;;7.72;3.65;;;;;;;4.23;75.27;97091.56;5051229;28;20040;-62
2022/04/12 05:49:54;;;;;;;7.78;4.00;;;;;;;4.28;75.78;97075.66;5049458;28;20044;-63
2022/04/12 05:52:20;;;;;;;9.48;3.53;;;;;;;4.46;73.53;97073.25;5053914;28;20048;-63
2022/04/12 05:54:47;;;;;;;5.25;3.25;;;;;;;4.62;73.51;97078.06;5050132;28;20048;-63
2022/04/12 05:57:13;;;;;;;7.30;2.80;;;;;;;4.87;72.04;97076.38;5052991;28;20044;-62
2022/04/12 05:59:45;;;;;;;5.07;2.63;;;;;;;5.19;70.36;97082.41;5051292;28;20379;-63
2022/04/12 06:02:12;;;;;;;7.53;3.25;;;;;;;5.42;69.75;97083.59;5052402;28;20045;-63
2022/04/12 06:04:38;;;;;;;11.05;3.67;;;;;;;5.62;69.37;97084.38;5050631;28;20044;-63
2022/04/12 06:07:05;;;;;;;6.38;3.53;;;;;;;5.66;69.66;97080.19;5052811;28;20076;-63
2022/04/12 06:09:31;;;;;;;7.00;3.50;;;;;;;5.70;70.09;97082.19;5051830;28;20114;-63
2022/04/12 06:11:58;;;;;;;5.70;3.50;;;;;;;5.79;72.12;97074.63;5054504;28;20550;-63
2022/04/12 06:14:24;;;;;;;6.50;3.50;;;;;;;5.78;72.05;97077.56;5058099;28;20044;-63
2022/04/12 06:16:51;;;;;;;7.50;3.40;;;;;;;5.85;71.66;97068.34;5050928;28;20041;-63
2022/04/12 06:19:17;;;;;;;5.72;3.10;;;;;;;5.88;71.87;97068.94;5057900;28;20056;-62
2022/04/12 06:21:44;;;;;;;6.28;2.95;;;;;;;5.94;71.74;97065.34;5058302;28;20051;-63
2022/04/12 06:24:10;;;;;;;5.53;2.72;;;;;;;6.01;71.48;97074.09;5059771;28;20095;-62
2022/04/12 06:26:37;;;;;;;5.15;2.63;;;;;;;6.15;70.13;97079.34;5055921;28;20040;-63
2022/04/12 06:29:03;;;;;;;5.68;3.10;;;;;;;6.31;69.12;97080.53;5051789;28;20048;-62
2022/04/12 06:31:30;;;;;;;5.68;3.30;;;;;;;6.57;68.65;97073.06;5062810;28;20040;-63
2022/04/12 06:33:56;;;;;;;7.28;3.28;;;;;;;6.79;67.48;97075.16;5065607;28;20493;-63
2022/04/12 06:36:23;;;;;;;6.07;3.20;;;;;;;6.95;67.18;97077.16;5065273;28;20048;-63
2022/04/12 06:38:50;;;;;;;6.53;3.00;;;;;;;7.05;67.22;97073.88;5081119;28;20044;-63
2022/04/12 06:41:17;;;;;;;6.13;2.88;;;;;;;7.16;66.88;97091.06;5053841;28;20048;-62
2022/04/12 06:43:43;;;;;;;9.30;3.40;;;;;;;7.39;66.51;97078.59;5046457;28;20527;-63
2022/04/12 06:46:10;;;;;;;7.00;3.40;;;;;;;7.59;66.03;97078.16;5064076;28;20101;-63
2022/04/12 06:48:36;;;;;;;8.60;3.90;;;;;;;7.81;65.96;97081.00;5045966;28;20068;-63
2022/04/12 06:51:03;;;;;;;7.60;3.17;;;;;;;8.01;65.45;97070.84;5057824;28;20049;-63
2022/04/12 06:53:29;;;;;;;7.40;3.42;;;;;;;8.16;64.47;97076.50;5041565;28;20049;-62
2022/04/12 06:55:57;;;;;;;4.93;2.47;;;;;;;8.32;61.59;97072.19;5058018;28;20155;-62
2022/04/12 06:58:23;;;;;;;16.20;3.88;;;;;;;8.47;61.12;97073.47;5053345;28;20060;-62
2022/04/12 07:00:50;;;;;;;5.90;2.70;;;;;;;8.58;61.29;97059.13;5052625;28;20055;-62
2022/04/12 07:03:17;;;;;;;7.50;2.90;;;;;;;8.80;60.96;97062.94;5064241;28;20051;-62
2022/04/12 07:05:45;;;;;;;7.90;3.40;;;;;;;9.10;60.50;97064.41;5052921;28;20128;-62
2022/04/12 07:08:12;;;;;;;6.00;3.13;;;;;;;9.26;59.58;97062.75;5065632;28;20055;-62
2022/04/12 07:10:38;;;;;;;7.50;3.30;;;;;;;9.49;58.53;97067.09;5062136;28;20107;-62
2022/04/12 07:13:05;;;;;;;7.15;3.50;;;;;;;9.68;56.32;97065.91;5060359;28;20052;-63
2022/04/12 07:15:32;;;;;;;5.57;2.75;;;;;;;9.82;56.46;97063.63;5066426;28;20055;-62
2022/04/12 07:17:59;;;;;;;5.97;2.88;;;;;;;10.00;53.66;97071.38;5073818;28;20067;-62
2022/04/12 07:20:25;;;;;;;8.13;2.97;;;;;;;10.12;54.09;97073.13;5073581;28;20148;-63
2022/04/12 07:22:52;;;;;;;6.03;2.72;;;;;;;10.23;54.34;97072.16;5069544;28;20110;-63
2022/04/12 07:25:19;;;;;;;4.82;2.83;;;;;;;10.35;53.35;97074.69;5077633;28;20040;-63
2022/04/12 07:27:45;;;;;;;6.78;2.40;;;;;;;10.67;50.49;97083.88;5084324;28;20048;-63
2022/04/12 07:30:13;;;;;;;6.10;2.60;;;;;;;10.77;50.02;97083.16;5084744;28;20081;-63
2022/04/12 07:32:57;;;;;;;6.82;2.70;;;;;;;10.93;50.20;97081.34;5069564;28;20040;-63
2022/04/12 07:35:26;;;;;;;3.63;2.03;;;;;;;11.12;48.06;97078.19;5064349;28;20457;-63
2022/04/12 07:37:53;;;;;;;5.18;2.30;;;;;;;11.27;48.41;97072.03;5078730;28;20439;-63
2022/04/12 07:40:20;;;;;;;7.15;2.33;;;;;;;11.37;48.68;97074.81;5065158;28;20391;-63
2022/04/12 07:42:47;;;;;;;5.57;2.40;;;;;;;11.42;48.84;97074.00;5080989;28;20448;-63
2022/04/12 07:45:13;;;;;;;7.18;2.65;;;;;;;11.61;49.04;97079.78;5061338;28;20048;-63
2022/04/12 07:47:40;;;;;;;5.53;2.67;;;;;;;11.76;47.61;97076.28;5080832;28;20036;-63
2022/04/12 07:50:07;;;;;;;10.88;2.47;;;;;;;11.87;48.18;97085.28;5084971;28;20213;-62
2022/04/12 07:52:33;;;;;;;4.40;2.17;;;;;;;12.07;47.89;97089.16;5080059;28;20049;-63
2022/04/12 07:55:00;;;;;;;4.95;2.20;;;;;;;12.25;47.00;97089.72;5062917;28;20063;-63
2022/04/12 07:57:28;;;;;;;4.90;2.65;;;;;;;12.43;46.12;97086.50;5082460;28;20532;-62
2022/04/12 07:59:55;;;;;;;5.68;2.30;;;;;;;12.64;45.86;97082.97;5085563;28;20428;-62
2022/04/12 08:02:22;;;;;;;5.15;2.65;;;;;;;12.76;44.91;97083.50;5073824;28;20531;-63
2022/04/12 08:04:48;;;;;;;5.07;2.50;;;;;;;12.88;45.19;97081.31;5064854;28;20109;-62
2022/04/12 08:07:15;;;;;;;5.05;2.28;;;;;;;13.08;44.56;97082.34;5076494;28;20040;-62
2022/04/12 08:09:42;;;;;;;6.60;2.05;;;;;;;13.27;44.59;97076.31;5072131;28;20415;-63
2022/04/12 08:12:08;;;;;;;6.60;2.28;;;;;;;13.40;44.45;97077.63;5070152;28;20090;-63
2022/04/12 08:14:35;;;;;;;6.75;2.80;;;;;;;13.45;44.42;97071.38;5084790;28;20283;-63
2022/04/12 08:17:01;;;;;;;4.93;2.03;;;;;;;13.69;43.82;97076.16;5069724;28;20048;-63
2022/04/12 08:19:28;;;;;;;3.67;1.80;;;;;;;13.89;43.42;97076.06;5058754;28;20072;-63
2022/04/12 08:21:55;;;;;;;5.90;2.17;;;;;;;14.10;43.34;97075.94;5067913;28;20036;-63
2022/04/12 08:24:22;;;;;;;4.88;2.25;;;;;;;14.23;42.21;97073.69;5066473;28;20044;-63
2022/04/12 08:26:48;;;;;;;4.78;2.38;;;;;;;14.30;42.99;97071.47;5066525;28;20044;-63
2022/04/12 08:29:15;;;;;;;6.53;3.10;;;;;;;14.42;43.19;97066.44;5066690;28;20048;-63
2022/04/12 08:31:42;;;;;;;9.73;2.10;;;;;;;14.59;43.68;97067.16;5066588;28;20701;-63
2022/04/12 08:34:08;;;;;;;5.25;2.22;;;;;;;14.68;42.43;97060.78;5066269;28;20048;-62
2022/04/12 08:36:35;;;;;;;8.13;2.20;;;;;;;14.77;43.31;97055.56;5066534;28;20474;-63
2022/04/12 08:39:02;;;;;;;7.43;2.40;;;;;;;14.62;42.59;97064.66;5065899;28;20052;-63
2022/04/12 08:41:29;;;;;;;6.28;1.98;;;;;;;14.62;42.21;97059.22;5065009;28;20144;-63
2022/04/12 08:43:58;;;;;;;7.30;2.38;;;;;;;14.56;42.20;97063.88;5066590;28;20051;-62
2022/04/12 08:46:27;;;;;;;5.68;2.00;;;;;;;14.42;41.14;97061.00;5064114;28;20037;-62
2022/04/12 08:48:56;;;;;;;7.07;2.75;;;;;;;14.42;42.35;97052.03;5066611;28;20048;-63
2022/04/12 08:51:26;;;;;;;5.13;2.30;;;;;;;14.41;43.06;97062.09;5065345;28;20127;-63
2022/04/12 08:53:56;;;;;;;5.82;2.35;;;;;;;14.38;41.88;97059.94;5065508;28;20055;-62
2022/04/12 08:56:23;;;;;;;7.03;2.40;;;;;;;14.43;41.49;97076.25;5066210;28;20454;-63
2022/04/12 08:58:49;;;;;;;4.72;2.20;;;;;;;14.46;40.75;97072.16;5065701;28;20182;-63
2022/04/12 09:01:35;;;;;;;6.45;2.72;;;;;;;14.74;41.87;97069.72;5066052;28;20058;-63
2022/04/12 09:04:02;;;;;;;5.60;2.30;;;;;;;14.89;42.14;97070.72;5066708;28;20048;-63
2022/04/12 09:06:29;;;;;;;4.80;2.60;;;;;;;15.06;41.36;97067.53;5065262;28;20039;-63
2022/04/12 09:09:10;;;;;;;4.55;2.50;;;;;;;15.30;42.39;97069.47;5058603;28;20049;-63
2022/04/12 09:11:40;;;;;;;5.97;2.85;;;;;;;15.49;41.23;97074.97;5050956;28;20511;-63
2022/04/12 09:14:06;;;;;;;5.93;3.13;;;;;;;15.61;38.86;97066.38;5065925;28;20049;-63
2022/04/12 09:16:33;;;;;;;5.15;2.33;;;;;;;15.81;39.45;97075.41;5053781;28;20108;-63
2022/04/12 09:19:00;;;;;;;5.00;2.38;;;;;;;15.80;36.93;97074.59;5056627;28;20040;-63
2022/04/12 09:21:27;;;;;;;5.18;2.40;;;;;;;15.88;36.76;97066.84;5058919;28;20504;-63
2022/04/12 09:23:58;;;;;;;5.00;2.58;;;;;;;15.91;37.77;97066.25;5064897;28;20045;-63
2022/04/12 09:26:30;;;;;;;6.95;2.42;;;;;;;16.11;37.08;97065.19;5059576;28;20052;-63
2022/04/12 09:29:00;;;;;;;5.88;2.10;;;;;;;16.24;36.64;97063.63;5064410;28;20037;-63
2022/04/12 09:31:27;;;;;;;4.72;2.30;;;;;;;16.40;36.22;97063.38;5060613;28;20033;-63
2022/04/12 09:33:54;;;;;;;4.70;1.98;;;;;;;16.47;36.40;97063.81;5054576;28;20041;-62
2022/04/12 09:36:21;;;;;;;5.28;2.10;;;;;;;16.54;36.17;97066.97;5050356;28;20425;-62
2022/04/12 09:38:58;;;;;;;3.85;1.73;;;;;;;16.74;36.65;97052.13;5053668;28;20040;-63
2022/04/12 09:41:26;;;;;;;4.63;2.17;;;;;;;16.75;37.35;97047.50;5043497;28;20123;-62
2022/04/12 09:43:54;;;;;;;4.88;1.60;;;;;;;16.89;35.89;97048.31;5044759;28;20049;-62
2022/04/12 09:46:23;;;;;;;5.20;1.88;;;;;;;16.94;36.04;97047.44;5045720;28;20045;-63
2022/04/12 09:48:52;;;;;;;3.25;1.63;;;;;;;16.93;34.92;97053.19;5064687;28;20051;-63
2022/04/12 09:51:21;;;;;;;2.92;1.50;;;;;;;17.06;35.20;97046.16;5064822;28;20462;-63
2022/04/12 09:53:47;;;;;;;4.55;1.65;;;;;;;16.96;35.09;97045.22;5044212;28;20041;-63
2022/04/12 09:56:17;;;;;;;5.85;1.70;;;;;;;16.99;35.44;97044.59;5044723;28;20048;-63
2022/04/12 09:58:46;;;;;;;7.88;2.50;;;;;;;17.16;34.65;97048.69;5045473;28;20055;-63
2022/04/12 10:01:14;;;;;;;3.35;1.48;;;;;;;17.24;33.97;97044.44;5044136;28;20060;-62
2022/04/12 10:03:45;;;;;;;3.05;1.70;;;;;;;16.92;33.80;97051.56;5065808;28;20172;-62
2022/04/12 10:06:14;;;;;;;3.63;1.40;;;;;;;17.08;33.80;97043.91;5062313;28;20049;-62
2022/04/12 10:08:42;;;;;;;2.97;1.30;;;;;;;17.20;35.31;97046.97;5063957;28;20052;-63
2022/04/12 10:11:12;;;;;;;3.65;1.63;;;;;;;17.23;34.32;97042.81;5058405;28;20110;-63
2022/04/12 10:13:40;;;;;;;4.18;1.60;;;;;;;17.15;34.49;97038.88;5056803;28;20040;-62
2022/04/12 10:16:08;;;;;;;5.60;1.80;;;;;;;17.07;34.74;97045.03;5050143;28;20102;-63
2022/04/12 10:18:35;;;;;;;2.55;1.30;;;;;;;17.12;34.53;97042.19;5056705;28;20107;-62
2022/04/12 10:21:02;;;;;;;4.53;1.25;;;;;;;17.27;35.17;97030.97;5067772;28;20075;-62
2022/04/12 10:23:29;;;;;;;3.30;1.25;;;;;;;17.50;35.83;97030.22;5059444;28;20303;-63
2022/04/12 10:25:57;;;;;;;4.70;1.27;;;;;;;17.68;39.10;97020.28;5059368;28;20048;-49
2022/04/12 10:28:27;;;;;;;3.75;1.38;;;;;;;17.80;34.61;97023.28;5054779;28;20060;-47
2022/04/12 10:31:19;;;;;;;2.72;1.40;;;;;;;17.96;34.07;97022.13;5071589;28;20041;-48
2022/04/12 10:34:05;;;;;;;2.05;1.02;;;;;;;18.00;36.13;97010.25;5047624;28;20394;-51
2022/04/12 10:36:54;;;;;;;6.13;1.60;;;;;;;18.16;37.81;97010.72;5042189;28;20056;-45
2022/04/12 10:39:48;;;;;;;3.67;1.40;;;;;;;18.33;34.70;97006.50;5057116;28;20502;-51
2022/04/12 10:42:20;;;;;;;2.70;1.20;;;;;;;18.43;34.18;97002.69;5049109;28;20048;-49
2022/04/12 10:44:52;;;;;;;7.07;2.03;;;;;;;18.50;35.12;96999.50;5068147;28;20059;-50
2022/04/12 10:47:31;;;;;;;4.38;1.50;;;;;;;18.45;37.26;97000.44;5056899;28;20056;-52
2022/04/12 10:50:07;;;;;;;3.67;1.15;;;;;;;18.63;37.46;97001.34;5067304;28;20032;-48
2022/04/12 10:52:52;;;;;;;3.75;1.42;;;;;;;18.63;35.66;96995.06;5062323;28;20459;-51
2022/04/12 10:55:23;;;;;;;3.28;1.40;;;;;;;18.81;34.72;96991.28;5065672;28;20055;-51
2022/04/12 10:57:51;;;;;;;;;;;;;;;18.79;34.04;96990.00;5078383;28;20036;-50
2022/04/12 11:00:22;;;;;;;3.40;1.67;;;;;;;18.90;34.70;96980.34;5081856;28;19947;-52
2022/04/12 11:02:54;;;;;;;4.38;1.30;;;;;;;18.88;33.74;96979.03;5070672;28;20048;-63
2022/04/12 11:05:36;;;;;;;2.95;1.23;;;;;;;18.91;33.87;96989.41;5078879;28;20054;-63
2022/04/12 11:08:07;;;;;;;3.22;1.30;;;;;;;18.93;33.75;96990.69;5069729;28;20040;-62
2022/04/12 11:10:38;;;;;;;2.42;1.23;;;;;;;19.00;32.73;96984.75;5085534;28;20048;-63
2022/04/12 11:13:10;;;;;;;4.22;1.60;;;;;;;19.09;32.34;96985.59;5082362;28;20044;-61
2022/04/12 11:15:38;;;;;;;3.85;1.25;;;;;;;19.04;32.29;96983.00;5073315;28;20633;-61
2022/04/12 11:18:16;;;;;;;2.35;1.10;;;;;;;19.19;33.81;96975.47;5085842;28;20060;-61
2022/04/12 11:20:46;;;;;;;2.17;1.13;;;;;;;19.30;33.27;96965.00;5083816;28;20469;-60
2022/04/12 11:23:14;;;;;;;5.32;1.60;;;;;;;19.41;31.57;96969.06;5082398;28;20056;-62
2022/04/12 11:25:45;;;;;;;2.53;1.02;;;;;;;19.60;32.13;96974.25;5082504;28;20044;-63
2022/04/12 11:28:15;;;;;;;2.53;0.90;;;;;;;19.74;32.80;96965.88;5058759;28;20055;-63
2022/04/12 11:30:52;;;;;;;5.53;1.00;;;;;;;19.60;30.06;96967.94;5085312;28;20036;-63
2022/04/12 11:33:23;;;;;;;2.75;0.88;;;;;;;19.89;31.00;96966.53;5069024;28;20565;-63
2022/04/12 11:35:51;;;;;;;4.40;1.02;;;;;;;20.12;30.60;96960.91;5049643;28;20154;-62
2022/04/12 11:38:19;;;;;;;3.42;1.00;;;;;;;20.40;30.47;96966.00;5084400;28;20549;-63
2022/04/12 11:40:47;;;;;;;3.35;1.60;;;;;;;20.62;30.12;96959.50;5085134;28;20580;-63
2022/04/12 11:43:24;;;;;;;1.45;0.80;;;;;;;20.77;30.20;96965.59;5085094;28;20078;-63
2022/04/12 11:45:52;;;;;;;2.78;1.10;;;;;;;20.88;29.81;96966.88;5068954;28;20063;-61
2022/04/12 11:48:21;;;;;;;3.03;1.17;;;;;;;20.28;30.07;96961.97;5085849;28;20437;-61
2022/04/12 11:50:52;;;;;;;2.15;0.90;;;;;;;20.75;30.86;96965.13;5083471;28;20048;-61
2022/04/12 11:53:25;;;;;;;6.72;1.23;;;;;;;20.83;30.52;96966.22;5084560;28;20048;-61
2022/04/12 11:55:58;;;;;;;2.25;0.95;;;;;;;20.59;30.61;96959.31;5083301;28;20407;-61
2022/04/12 11:58:28;;;;;;;2.45;1.10;;;;;;;20.33;29.86;96960.19;5084643;28;20047;-61
2022/04/12 12:00:55;;;;;;;2.17;0.98;;;;;;;20.82;29.12;96959.91;5085001;28;20048;-61
2022/04/12 12:03:28;;;;;;;3.45;1.10;;;;;;;21.00;28.21;96954.34;5081765;28;20035;-61